Time;durP1;ratioP1;P1;durP2;ratioP2;P2;SDS_P1;SDS_P2;PMS_P1;PMS_P2;Temp;Humidity;BMP_temperature;BMP_pressure;BME280_temperature;BME280_humidity;BME280_pressure;Samples;Min_cycle;Max_cycle;Signal;HPM_P1;HPM_P2
2021/11/29 00:00:27;;;;;;;2.70;2.60;;;2.50;99.90;;;;;;5043606;28;20223;-74
2021/11/29 00:02:59;;;;;;;2.85;2.75;;;2.60;99.90;;;;;;5042295;28;20218;-74
2021/11/29 00:05:27;;;;;;;2.90;2.80;;;2.60;99.90;;;;;;5041873;28;20214;-75
2021/11/29 00:07:56;;;;;;;3.17;3.08;;;2.60;99.90;;;;;;5039043;28;20238;-77
2021/11/29 00:10:23;;;;;;;2.58;2.47;;;2.60;99.90;;;;;;5046310;28;20218;-77
2021/11/29 00:12:50;;;;;;;2.75;2.65;;;2.60;99.90;;;;;;5047773;28;20709;-76
2021/11/29 00:15:18;;;;;;;2.80;2.70;;;2.70;99.90;;;;;;5046810;28;20223;-75
2021/11/29 00:17:45;;;;;;;3.00;2.90;;;2.60;99.90;;;;;;5044004;28;20222;-75
2021/11/29 00:20:15;;;;;;;2.60;2.50;;;2.60;99.90;;;;;;5046347;28;20223;-76
2021/11/29 00:22:43;;;;;;;2.65;2.55;;;2.60;99.90;;;;;;5045014;28;20215;-74
2021/11/29 00:25:11;;;;;;;2.75;2.65;;;2.60;99.90;;;;;;5017512;28;20605;-74
2021/11/29 00:27:39;;;;;;;2.90;2.80;;;2.60;99.90;;;;;;5042880;28;20414;-74
2021/11/29 00:30:08;;;;;;;2.53;2.42;;;2.70;99.90;;;;;;5038760;28;20214;-74
2021/11/29 00:32:35;;;;;;;2.75;2.65;;;2.70;99.90;;;;;;5041658;28;20222;-74
2021/11/29 00:35:03;;;;;;;3.00;2.90;;;2.70;99.90;;;;;;5045104;28;20601;-74
2021/11/29 00:37:32;;;;;;;2.90;2.80;;;2.70;99.90;;;;;;5042576;28;20223;-73
2021/11/29 00:39:59;;;;;;;2.75;2.65;;;2.70;99.90;;;;;;5041119;28;20219;-76
2021/11/29 00:42:26;;;;;;;3.08;2.88;;;2.70;99.90;;;;;;5045696;28;20730;-74
2021/11/29 00:44:54;;;;;;;3.20;3.10;;;2.70;99.90;;;;;;5042705;28;20226;-77
2021/11/29 00:47:21;;;;;;;2.90;2.80;;;2.60;99.90;;;;;;5044943;28;20238;-75
2021/11/29 00:49:48;;;;;;;3.13;2.92;;;2.40;99.90;;;;;;5046746;28;20616;-75
2021/11/29 00:52:15;;;;;;;2.88;2.78;;;2.40;99.90;;;;;;5046504;28;20704;-74
2021/11/29 00:54:43;;;;;;;2.80;2.65;;;2.30;99.90;;;;;;5041762;28;20219;-77
2021/11/29 00:57:11;;;;;;;3.10;3.00;;;2.40;99.90;;;;;;5042263;28;20226;-75
2021/11/29 00:59:38;;;;;;;2.80;2.70;;;2.40;99.90;;;;;;5042795;28;20226;-76
2021/11/29 01:02:06;;;;;;;2.40;2.30;;;2.40;99.90;;;;;;5043947;28;20663;-75
2021/11/29 01:04:33;;;;;;;3.08;2.60;;;2.40;99.90;;;;;;5044769;28;20258;-75
2021/11/29 01:07:00;;;;;;;2.60;2.50;;;2.40;99.90;;;;;;5040988;28;20277;-75
2021/11/29 01:09:27;;;;;;;2.85;2.75;;;2.30;99.90;;;;;;5039299;28;20233;-75
2021/11/29 01:11:56;;;;;;;2.38;2.28;;;2.30;99.90;;;;;;5042662;28;20210;-74
2021/11/29 01:14:23;;;;;;;2.47;2.33;;;2.30;99.90;;;;;;5040487;28;20237;-75
2021/11/29 01:16:50;;;;;;;2.70;2.60;;;2.40;99.90;;;;;;5041847;28;20230;-75
2021/11/29 01:19:17;;;;;;;2.70;2.60;;;2.50;99.90;;;;;;5040481;28;20558;-75
2021/11/29 01:21:44;;;;;;;2.80;2.60;;;2.50;99.90;;;;;;5043000;28;20226;-75
2021/11/29 01:24:11;;;;;;;2.67;2.58;;;2.50;99.90;;;;;;5039045;28;20229;-76
2021/11/29 01:26:38;;;;;;;2.60;2.50;;;2.50;99.90;;;;;;5045389;28;20226;-77
2021/11/29 01:29:07;;;;;;;2.60;2.50;;;2.50;99.90;;;;;;5041636;28;20285;-77
2021/11/29 01:31:34;;;;;;;2.13;2.03;;;2.50;99.90;;;;;;5043810;28;22294;-77
2021/11/29 01:34:01;;;;;;;2.35;2.25;;;2.50;99.90;;;;;;5044988;28;20218;-75
2021/11/29 01:36:28;;;;;;;2.53;2.42;;;2.50;99.90;;;;;;5042430;28;20484;-75
2021/11/29 01:38:55;;;;;;;2.53;2.42;;;2.50;99.90;;;;;;5042726;28;20218;-74
2021/11/29 01:41:23;;;;;;;2.80;2.70;;;2.50;99.90;;;;;;5043907;28;20229;-78
2021/11/29 01:43:50;;;;;;;2.72;2.63;;;2.50;99.90;;;;;;5040350;28;20227;-75
2021/11/29 01:46:18;;;;;;;2.58;2.47;;;2.50;99.90;;;;;;5043096;28;20242;-75
2021/11/29 01:48:46;;;;;;;2.78;2.67;;;2.50;99.90;;;;;;5041524;28;20223;-75
2021/11/29 01:51:13;;;;;;;2.53;2.42;;;2.50;99.90;;;;;;5039943;28;20215;-75
2021/11/29 01:53:41;;;;;;;2.28;2.17;;;2.40;99.90;;;;;;4998693;28;20265;-75
2021/11/29 01:56:08;;;;;;;2.80;2.70;;;2.40;99.90;;;;;;5041931;28;20241;-75
2021/11/29 01:58:38;;;;;;;2.50;2.40;;;2.40;99.90;;;;;;5041615;28;20227;-75
2021/11/29 02:01:08;;;;;;;2.65;2.55;;;2.40;99.90;;;;;;5042450;28;20238;-75
2021/11/29 02:03:37;;;;;;;2.63;2.53;;;2.40;99.90;;;;;;5038738;28;20231;-75
2021/11/29 02:06:04;;;;;;;2.88;2.78;;;2.40;99.90;;;;;;5042347;28;20226;-76
2021/11/29 02:08:32;;;;;;;2.55;2.45;;;2.40;99.90;;;;;;5046836;28;20218;-75
2021/11/29 02:10:59;;;;;;;2.70;2.60;;;2.40;99.90;;;;;;5049129;28;20218;-75
2021/11/29 02:13:26;;;;;;;2.65;2.55;;;2.40;99.90;;;;;;5045514;28;20223;-75
2021/11/29 02:15:53;;;;;;;3.10;2.78;;;2.40;99.90;;;;;;5049480;28;20218;-76
2021/11/29 02:18:26;;;;;;;2.75;2.65;;;2.40;99.90;;;;;;5039489;28;20241;-76
2021/11/29 02:21:03;;;;;;;2.85;2.75;;;2.30;99.90;;;;;;5046546;28;20226;-76
2021/11/29 02:23:30;;;;;;;2.70;2.60;;;2.30;99.90;;;;;;5047407;28;20214;-76
2021/11/29 02:25:57;;;;;;;2.80;2.70;;;2.30;99.90;;;;;;5044982;28;20222;-75
2021/11/29 02:28:25;;;;;;;2.33;2.22;;;2.30;99.90;;;;;;5048172;28;20735;-75
2021/11/29 02:30:53;;;;;;;2.55;2.45;;;2.30;99.90;;;;;;5045421;28;20219;-75
2021/11/29 02:33:20;;;;;;;2.50;2.40;;;2.30;99.90;;;;;;5044963;28;20215;-75
2021/11/29 02:35:47;;;;;;;2.55;2.45;;;2.20;99.90;;;;;;5047201;28;20227;-76
2021/11/29 02:38:15;;;;;;;2.40;2.30;;;2.20;99.90;;;;;;5005089;22;20238;-78
2021/11/29 02:40:43;;;;;;;2.70;2.60;;;2.20;99.90;;;;;;5011501;28;20230;-78
2021/11/29 02:43:10;;;;;;;2.40;2.30;;;2.20;99.90;;;;;;5005225;28;20220;-79
2021/11/29 02:45:37;;;;;;;2.55;2.45;;;2.20;99.90;;;;;;5005738;28;20215;-78
2021/11/29 02:48:05;;;;;;;2.70;2.60;;;2.20;99.90;;;;;;5004499;28;20729;-78
2021/11/29 02:50:36;;;;;;;2.35;2.25;;;2.20;99.90;;;;;;5005210;28;20699;-77
2021/11/29 02:53:04;;;;;;;2.70;2.60;;;2.20;99.90;;;;;;5005210;28;20590;-77
2021/11/29 02:55:33;;;;;;;2.60;2.50;;;2.20;99.90;;;;;;5007087;28;20228;-79
2021/11/29 02:58:00;;;;;;;2.70;2.60;;;2.20;99.90;;;;;;5004410;28;20224;-78
2021/11/29 03:00:27;;;;;;;2.78;2.67;;;2.20;99.90;;;;;;5003834;28;20238;-79
2021/11/29 03:03:07;;;;;;;2.80;2.70;;;2.20;99.90;;;;;;5005044;28;20227;-79
2021/11/29 03:05:34;;;;;;;2.45;2.35;;;2.20;99.90;;;;;;5001386;28;20239;-77
2021/11/29 03:08:02;;;;;;;2.53;2.42;;;2.20;99.90;;;;;;5003750;28;20952;-79
2021/11/29 03:10:30;;;;;;;2.60;2.50;;;2.10;99.90;;;;;;5004708;28;20227;-77
2021/11/29 03:12:59;;;;;;;2.80;2.70;;;2.10;99.90;;;;;;5001840;28;20223;-79
2021/11/29 03:15:26;;;;;;;2.50;2.40;;;2.10;99.90;;;;;;5003555;28;20224;-77
2021/11/29 03:17:53;;;;;;;2.67;2.58;;;2.10;99.90;;;;;;5002144;28;20224;-77
2021/11/29 03:20:20;;;;;;;2.90;2.80;;;2.00;99.90;;;;;;5006399;28;20220;-78
2021/11/29 03:22:47;;;;;;;2.90;2.80;;;2.00;99.90;;;;;;5005363;28;20225;-78
2021/11/29 03:25:14;;;;;;;2.78;2.67;;;2.00;99.90;;;;;;5006553;28;20733;-77
2021/11/29 03:27:43;;;;;;;2.80;2.70;;;2.00;99.90;;;;;;5004863;28;20224;-79
2021/11/29 03:30:12;;;;;;;2.95;2.75;;;1.90;99.90;;;;;;5007728;28;20223;-77
2021/11/29 03:32:40;;;;;;;2.50;2.40;;;1.90;99.90;;;;;;5003971;28;20698;-79
2021/11/29 03:35:10;;;;;;;2.97;2.88;;;2.00;99.90;;;;;;5001679;28;20347;-79
2021/11/29 03:37:37;;;;;;;2.92;2.83;;;2.00;99.90;;;;;;5004247;28;20228;-77
2021/11/29 03:40:07;;;;;;;2.58;2.47;;;2.00;99.90;;;;;;5005726;28;20457;-77
2021/11/29 03:42:34;;;;;;;2.72;2.63;;;2.00;99.90;;;;;;5006294;28;20242;-77
2021/11/29 03:45:04;;;;;;;2.55;2.45;;;1.90;99.90;;;;;;5002066;28;20227;-77
2021/11/29 03:47:32;;;;;;;2.60;2.50;;;1.90;99.90;;;;;;5002854;28;20221;-81
2021/11/29 03:49:59;;;;;;;2.70;2.60;;;1.90;99.90;;;;;;5000444;28;20220;-80
2021/11/29 03:52:27;;;;;;;2.80;2.70;;;1.90;99.90;;;;;;4997986;28;20595;-80
2021/11/29 03:54:54;;;;;;;2.60;2.50;;;1.90;99.90;;;;;;5000068;28;20718;-78
2021/11/29 03:57:21;;;;;;;2.55;2.38;;;1.90;99.90;;;;;;5000961;28;20232;-77
2021/11/29 03:59:48;;;;;;;2.80;2.70;;;1.90;99.90;;;;;;5006175;28;20228;-79
2021/11/29 04:02:16;;;;;;;2.90;2.80;;;1.90;99.90;;;;;;5006702;28;20726;-80
2021/11/29 04:04:44;;;;;;;2.70;2.60;;;1.90;99.90;;;;;;5002812;28;20223;-76
2021/11/29 04:07:12;;;;;;;2.75;2.65;;;1.90;99.90;;;;;;5007982;28;20607;-79
2021/11/29 04:09:39;;;;;;;3.00;2.90;;;2.00;99.90;;;;;;5003449;28;20227;-77
2021/11/29 04:12:07;;;;;;;2.90;2.80;;;2.00;99.90;;;;;;5006399;28;20231;-77
2021/11/29 04:14:34;;;;;;;2.60;2.50;;;1.90;99.90;;;;;;5002160;28;20236;-77
2021/11/29 04:17:02;;;;;;;2.85;2.75;;;1.90;99.90;;;;;;4998803;28;20231;-77
2021/11/29 04:19:29;;;;;;;2.80;2.70;;;1.90;99.90;;;;;;5002781;28;20259;-79
2021/11/29 04:21:57;;;;;;;2.47;2.38;;;1.90;99.90;;;;;;5001611;28;20233;-77
2021/11/29 04:24:24;;;;;;;2.53;2.42;;;1.90;99.90;;;;;;5001337;28;20224;-78
2021/11/29 04:26:53;;;;;;;3.00;2.90;;;1.90;99.90;;;;;;5006116;28;20318;-77
2021/11/29 04:29:24;;;;;;;2.58;2.47;;;1.80;99.90;;;;;;5002278;28;20262;-78
2021/11/29 04:31:52;;;;;;;2.90;2.80;;;1.80;99.90;;;;;;5004471;28;20282;-76
2021/11/29 04:34:19;;;;;;;2.67;2.58;;;1.70;99.90;;;;;;5002749;28;20228;-77
2021/11/29 04:36:46;;;;;;;2.50;2.40;;;1.70;99.90;;;;;;5001108;28;20224;-79
2021/11/29 04:39:16;;;;;;;2.60;2.47;;;1.70;99.90;;;;;;5004909;28;20239;-78
2021/11/29 04:41:43;;;;;;;2.65;2.55;;;1.70;99.90;;;;;;5006096;28;20299;-80
2021/11/29 04:44:11;;;;;;;2.72;2.63;;;1.70;99.90;;;;;;5001211;28;20219;-76
2021/11/29 04:46:38;;;;;;;3.17;3.08;;;1.70;99.90;;;;;;5004599;28;20228;-76
2021/11/29 04:49:05;;;;;;;2.58;2.47;;;1.70;99.90;;;;;;5000808;28;20240;-77
2021/11/29 04:51:32;;;;;;;2.90;2.80;;;1.70;99.90;;;;;;4999922;28;20224;-78
2021/11/29 04:53:59;;;;;;;2.92;2.72;;;1.70;99.90;;;;;;5002738;28;20219;-77
2021/11/29 04:56:28;;;;;;;2.78;2.67;;;1.70;99.90;;;;;;5001228;28;20216;-79
2021/11/29 04:58:55;;;;;;;2.67;2.58;;;1.70;99.90;;;;;;5002449;28;20220;-77
2021/11/29 05:01:22;;;;;;;2.75;2.65;;;1.70;99.90;;;;;;5004157;28;20351;-79
2021/11/29 05:03:50;;;;;;;2.80;2.70;;;1.60;99.90;;;;;;5006398;28;20224;-77
2021/11/29 05:06:17;;;;;;;2.83;2.72;;;1.50;99.90;;;;;;5002673;28;20223;-78
2021/11/29 05:08:44;;;;;;;2.78;2.67;;;1.50;99.90;;;;;;5004533;28;20228;-79
2021/11/29 05:11:11;;;;;;;2.80;2.70;;;1.50;99.90;;;;;;5002014;28;20224;-77
2021/11/29 05:13:39;;;;;;;2.88;2.78;;;1.50;99.90;;;;;;5002218;28;20227;-77
2021/11/29 05:16:07;;;;;;;2.97;2.88;;;1.50;99.90;;;;;;5004269;28;20236;-76
2021/11/29 05:18:34;;;;;;;2.88;2.78;;;1.60;99.90;;;;;;5002769;28;20224;-78
2021/11/29 05:21:01;;;;;;;2.92;2.83;;;1.60;99.90;;;;;;5002089;28;20291;-78
2021/11/29 05:23:29;;;;;;;3.03;2.90;;;1.60;99.90;;;;;;5001287;28;20606;-78
2021/11/29 05:25:56;;;;;;;2.85;2.75;;;1.60;99.90;;;;;;5002933;28;20224;-77
2021/11/29 05:28:23;;;;;;;3.47;3.33;;;1.50;99.90;;;;;;5003580;28;20220;-77
2021/11/29 05:30:51;;;;;;;3.20;3.10;;;1.50;99.90;;;;;;5004594;28;20224;-77
2021/11/29 05:33:19;;;;;;;3.60;3.40;;;1.50;99.90;;;;;;4999979;28;20227;-81
2021/11/29 05:35:46;;;;;;;3.47;3.20;;;1.60;99.90;;;;;;5001462;28;20227;-77
2021/11/29 05:38:13;;;;;;;2.88;2.78;;;1.60;99.90;;;;;;5004544;28;20742;-77
2021/11/29 05:40:40;;;;;;;3.00;2.90;;;1.50;99.90;;;;;;5007381;28;20235;-77
2021/11/29 05:43:07;;;;;;;3.30;3.20;;;1.50;99.90;;;;;;5001101;28;20303;-79
2021/11/29 05:45:35;;;;;;;3.08;2.97;;;1.50;99.90;;;;;;5002193;28;20227;-77
2021/11/29 05:48:04;;;;;;;3.17;3.08;;;1.50;99.90;;;;;;5003890;28;20228;-77
2021/11/29 05:50:31;;;;;;;3.20;3.10;;;1.50;99.90;;;;;;5003455;28;20732;-78
2021/11/29 05:52:58;;;;;;;3.42;3.33;;;1.40;99.90;;;;;;5002166;28;20229;-81
2021/11/29 05:55:25;;;;;;;2.88;2.78;;;1.40;99.90;;;;;;5001522;28;20315;-78
2021/11/29 05:57:52;;;;;;;2.67;2.58;;;1.40;99.90;;;;;;5006243;28;20232;-80
2021/11/29 06:00:20;;;;;;;2.75;2.65;;;1.40;99.90;;;;;;5006938;28;20224;-80
2021/11/29 06:02:48;;;;;;;3.10;3.00;;;1.40;99.90;;;;;;5002248;28;20224;-78
2021/11/29 06:05:17;;;;;;;2.70;2.60;;;1.50;99.90;;;;;;5003905;28;20224;-78
2021/11/29 06:07:45;;;;;;;3.00;2.90;;;1.40;99.90;;;;;;5001967;28;20227;-79
2021/11/29 06:10:13;;;;;;;3.00;2.90;;;1.40;99.90;;;;;;5006322;28;20228;-78
2021/11/29 06:12:43;;;;;;;2.97;2.88;;;1.40;99.90;;;;;;5008096;28;20220;-80
2021/11/29 06:15:11;;;;;;;2.70;2.60;;;1.50;99.90;;;;;;5002563;28;20278;-78
2021/11/29 06:17:38;;;;;;;3.15;3.05;;;1.40;99.90;;;;;;5003389;28;20573;-79
2021/11/29 06:20:07;;;;;;;3.30;3.10;;;1.40;99.90;;;;;;5006772;28;20223;-80
2021/11/29 06:22:36;;;;;;;2.83;2.72;;;1.40;99.90;;;;;;5001668;28;22461;-78
2021/11/29 06:25:04;;;;;;;2.88;2.78;;;1.40;99.90;;;;;;5010466;28;20216;-78
2021/11/29 06:27:31;;;;;;;2.92;2.83;;;1.40;99.90;;;;;;5012680;28;20231;-78
2021/11/29 06:29:58;;;;;;;3.28;3.08;;;1.40;99.90;;;;;;5004065;28;20991;-81
2021/11/29 06:32:25;;;;;;;3.03;2.92;;;1.40;99.90;;;;;;5006372;28;20584;-78
2021/11/29 06:34:52;;;;;;;3.10;3.00;;;1.50;99.90;;;;;;5000770;28;20637;-78
2021/11/29 06:37:21;;;;;;;3.05;2.95;;;1.50;99.90;;;;;;4999347;28;20220;-80
2021/11/29 06:39:49;;;;;;;2.70;2.60;;;1.50;99.90;;;;;;4992229;28;20947;-79
2021/11/29 06:42:16;;;;;;;2.97;2.88;;;1.50;99.90;;;;;;4991994;28;20236;-77
2021/11/29 06:44:43;;;;;;;2.95;2.85;;;1.60;99.90;;;;;;4995617;28;20235;-78
2021/11/29 06:47:11;;;;;;;3.30;3.00;;;1.60;99.90;;;;;;4991962;28;20240;-78
2021/11/29 06:49:38;;;;;;;3.60;3.40;;;1.60;99.90;;;;;;4996106;28;20231;-78
2021/11/29 06:52:06;;;;;;;3.40;3.20;;;1.70;99.90;;;;;;4993430;28;20243;-78
2021/11/29 06:54:36;;;;;;;3.20;3.00;;;1.70;99.90;;;;;;4996434;28;20224;-78
2021/11/29 06:57:06;;;;;;;2.85;2.75;;;1.80;99.90;;;;;;4995632;28;20745;-78
2021/11/29 06:59:33;;;;;;;3.47;3.38;;;1.90;99.90;;;;;;4996340;28;20228;-79
2021/11/29 07:02:02;;;;;;;3.17;3.08;;;1.90;99.90;;;;;;4998283;28;20224;-79
2021/11/29 07:04:30;;;;;;;3.28;3.17;;;1.90;99.90;;;;;;4995760;28;20219;-78
2021/11/29 07:06:58;;;;;;;2.92;2.83;;;2.00;99.90;;;;;;4998717;28;20251;-78
2021/11/29 07:09:26;;;;;;;3.15;3.05;;;2.00;99.90;;;;;;4990487;28;20681;-78
2021/11/29 07:11:53;;;;;;;3.10;3.00;;;2.00;99.90;;;;;;4997745;28;20587;-78
2021/11/29 07:14:22;;;;;;;3.15;3.05;;;2.10;99.90;;;;;;4996993;28;20247;-81
2021/11/29 07:16:49;;;;;;;3.10;2.90;;;2.10;99.90;;;;;;5002036;28;20220;-79
2021/11/29 07:19:17;;;;;;;3.15;3.05;;;2.10;99.90;;;;;;5000305;28;20220;-78
2021/11/29 07:21:45;;;;;;;3.10;3.00;;;2.20;99.90;;;;;;4999768;28;20227;-77
2021/11/29 07:24:13;;;;;;;2.80;2.70;;;2.20;99.90;;;;;;5000166;28;20220;-79
2021/11/29 07:26:42;;;;;;;3.15;3.05;;;2.30;99.90;;;;;;5002392;28;20227;-78
2021/11/29 07:29:09;;;;;;;3.10;3.00;;;2.40;99.90;;;;;;4997247;28;20868;-80
2021/11/29 07:31:39;;;;;;;3.47;3.28;;;2.40;99.90;;;;;;4997708;28;20224;-78
2021/11/29 07:34:06;;;;;;;3.40;3.30;;;2.40;99.90;;;;;;4998650;28;20607;-80
2021/11/29 07:36:33;;;;;;;3.33;3.22;;;2.40;99.90;;;;;;4997498;28;20227;-78
2021/11/29 07:39:00;;;;;;;3.53;3.33;;;2.50;99.90;;;;;;4993051;28;20223;-79
2021/11/29 07:41:27;;;;;;;2.95;2.85;;;2.50;99.90;;;;;;4995727;28;20216;-80
2021/11/29 07:43:55;;;;;;;2.90;2.80;;;2.60;99.90;;;;;;5001728;28;20220;-80
2021/11/29 07:46:22;;;;;;;3.47;3.20;;;2.60;99.90;;;;;;4997853;28;20220;-78
2021/11/29 07:48:50;;;;;;;3.28;3.08;;;2.70;99.90;;;;;;4997461;28;20223;-77
2021/11/29 07:51:17;;;;;;;3.35;3.15;;;2.70;99.90;;;;;;4991189;28;20259;-78
2021/11/29 07:53:44;;;;;;;3.40;3.20;;;2.70;99.90;;;;;;4998357;28;20224;-78
2021/11/29 07:56:12;;;;;;;3.03;2.92;;;2.80;99.90;;;;;;4996309;28;20223;-79
2021/11/29 07:58:39;;;;;;;3.08;2.88;;;2.80;99.90;;;;;;5001171;28;20231;-80
2021/11/29 08:01:06;;;;;;;3.00;2.90;;;2.90;99.90;;;;;;5000590;28;20239;-83
2021/11/29 08:03:33;;;;;;;3.20;3.10;;;2.90;99.90;;;;;;5003589;28;20220;-81
2021/11/29 08:06:02;;;;;;;2.97;2.88;;;3.30;99.90;;;;;;5006283;28;20278;-79
2021/11/29 08:08:29;;;;;;;3.47;3.28;;;3.80;99.90;;;;;;5001592;28;20224;-82
2021/11/29 08:10:56;;;;;;;2.80;2.70;;;4.30;99.90;;;;;;4989252;28;20219;-79
2021/11/29 08:13:23;;;;;;;3.50;3.30;;;4.60;99.90;;;;;;5012107;28;21013;-79
2021/11/29 08:15:50;;;;;;;2.95;2.85;;;4.80;99.90;;;;;;4999493;28;20223;-78
2021/11/29 08:18:18;;;;;;;3.10;2.90;;;5.20;99.90;;;;;;4996969;28;20731;-77
2021/11/29 08:20:45;;;;;;;3.30;3.10;;;5.60;99.90;;;;;;4997707;28;20455;-79
2021/11/29 08:23:13;;;;;;;3.10;2.90;;;6.10;99.90;;;;;;4998220;28;20718;-78
2021/11/29 08:25:41;;;;;;;2.90;2.70;;;6.40;99.90;;;;;;4996836;28;20228;-80
2021/11/29 08:28:09;;;;;;;3.25;3.00;;;6.80;99.90;;;;;;4999329;28;20240;-80
2021/11/29 08:30:36;;;;;;;3.40;3.20;;;7.20;99.90;;;;;;4996222;28;20697;-78
2021/11/29 08:33:03;;;;;;;3.88;3.58;;;7.60;99.90;;;;;;4998008;28;20243;-78
2021/11/29 08:35:31;;;;;;;3.40;3.20;;;7.80;99.90;;;;;;4999914;28;20224;-77
2021/11/29 08:37:59;;;;;;;3.67;3.38;;;8.00;99.90;;;;;;5000259;28;20224;-77
2021/11/29 08:40:29;;;;;;;3.22;3.03;;;8.10;99.90;;;;;;4997066;28;20223;-78
2021/11/29 08:42:57;;;;;;;3.15;2.95;;;7.80;99.90;;;;;;5007283;22;20223;-72
2021/11/29 08:45:25;;;;;;;3.13;2.92;;;7.30;99.90;;;;;;5012728;28;20230;-76
2021/11/29 08:47:53;;;;;;;3.20;3.00;;;7.00;99.90;;;;;;5014195;28;20230;-77
2021/11/29 08:50:21;;;;;;;3.67;3.38;;;7.10;99.90;;;;;;5013852;28;20230;-74
2021/11/29 08:52:48;;;;;;;3.20;2.90;;;7.60;99.90;;;;;;5009875;28;20235;-76
2021/11/29 08:55:16;;;;;;;3.05;2.85;;;8.10;99.90;;;;;;5015254;28;20227;-75
2021/11/29 08:57:44;;;;;;;4.85;3.10;;;8.50;99.90;;;;;;5014048;28;20220;-74
2021/11/29 09:00:17;;;;;;;4.55;4.15;;;8.90;99.90;;;;;;5015968;28;20219;-76
2021/11/29 09:02:45;;;;;;;3.05;2.85;;;9.50;99.90;;;;;;5010775;28;20223;-75
2021/11/29 09:05:12;;;;;;;3.00;2.80;;;10.20;99.90;;;;;;5014717;28;20774;-74
2021/11/29 09:07:40;;;;;;;3.10;2.90;;;11.10;99.90;;;;;;5011314;28;20227;-77
2021/11/29 09:10:09;;;;;;;3.20;3.00;;;12.40;99.90;;;;;;5014907;28;20227;-74
2021/11/29 09:12:37;;;;;;;2.80;2.58;;;13.70;99.90;;;;;;5016707;28;20605;-75
2021/11/29 09:15:08;;;;;;;4.82;2.83;;;15.20;99.90;;;;;;5010205;28;20229;-76
2021/11/29 09:17:36;;;;;;;3.72;2.70;;;16.50;99.90;;;;;;5017474;28;20243;-76
2021/11/29 09:20:04;;;;;;;2.60;2.40;;;17.50;99.90;;;;;;5019441;28;20231;-77
2021/11/29 09:22:31;;;;;;;2.67;2.47;;;18.00;99.90;;;;;;5017545;28;20236;-75
2021/11/29 09:25:00;;;;;;;2.80;2.60;;;18.70;99.80;;;;;;5021953;28;20225;-77
2021/11/29 09:27:27;;;;;;;2.60;2.33;;;19.20;97.50;;;;;;5012508;28;20282;-80
2021/11/29 09:29:54;;;;;;;2.42;2.28;;;19.40;95.20;;;;;;5021250;28;20599;-77
2021/11/29 09:32:23;;;;;;;2.30;2.10;;;19.50;93.00;;;;;;5010584;28;20242;-78
2021/11/29 09:34:50;;;;;;;2.55;2.35;;;19.40;92.40;;;;;;5018742;28;20222;-78
2021/11/29 09:37:19;;;;;;;2.70;2.30;;;19.20;92.10;;;;;;5013078;28;20271;-82
2021/11/29 09:39:47;;;;;;;2.30;2.20;;;18.40;91.50;;;;;;5013963;28;20789;-78
2021/11/29 09:42:15;;;;;;;2.20;2.10;;;17.20;92.00;;;;;;5014615;28;20246;-77
2021/11/29 09:44:42;;;;;;;4.25;2.30;;;15.60;93.60;;;;;;5017071;28;20619;-80
2021/11/29 09:47:10;;;;;;;2.67;2.47;;;14.00;95.90;;;;;;5019458;28;20607;-75
2021/11/29 09:49:39;;;;;;;2.63;2.53;;;12.80;99.90;;;;;;5014863;28;20301;-77
2021/11/29 09:52:06;;;;;;;5.15;2.67;;;12.10;99.90;;;;;;5012155;28;20235;-77
2021/11/29 09:54:33;;;;;;;2.90;2.55;;;11.30;99.90;;;;;;5014708;28;20619;-81
2021/11/29 09:57:01;;;;;;;2.45;2.25;;;10.80;99.90;;;;;;5015855;28;20219;-77
2021/11/29 09:59:29;;;;;;;2.63;2.42;;;10.50;99.90;;;;;;5015548;28;21045;-76
2021/11/29 10:01:57;;;;;;;2.38;2.20;;;10.20;99.90;;;;;;5010572;28;20235;-74
2021/11/29 10:04:24;;;;;;;2.67;2.10;;;10.20;99.90;;;;;;5017050;28;20216;-80
2021/11/29 10:06:58;;;;;;;2.72;2.15;;;10.30;99.90;;;;;;5013996;28;20763;-77
2021/11/29 10:09:31;;;;;;;2.33;2.22;;;10.50;99.90;;;;;;5014824;28;20338;-78
2021/11/29 10:12:27;;;;;;;2.13;2.03;;;10.50;99.90;;;;;;5014941;28;20230;-74
2021/11/29 10:15:17;;;;;;;1.90;1.80;;;10.40;99.90;;;;;;5012356;28;20588;-77
2021/11/29 10:17:45;;;;;;;2.25;2.15;;;10.30;99.90;;;;;;5018219;28;20266;-76
2021/11/29 10:20:12;;;;;;;3.10;2.42;;;10.10;99.90;;;;;;5018286;28;20220;-76
2021/11/29 10:22:55;;;;;;;2.33;2.22;;;10.00;99.90;;;;;;5016205;28;20231;-79
2021/11/29 10:25:23;;;;;;;3.38;2.50;;;10.00;99.90;;;;;;5012110;28;20226;-77
2021/11/29 10:27:50;;;;;;;2.70;2.50;;;9.90;99.90;;;;;;5017343;28;20223;-77
2021/11/29 10:30:19;;;;;;;2.88;2.67;;;9.70;99.90;;;;;;5016657;28;20228;-77
2021/11/29 10:32:49;;;;;;;2.45;2.30;;;9.80;99.90;;;;;;5018211;28;20419;-75
2021/11/29 10:35:23;;;;;;;2.67;2.47;;;9.90;99.90;;;;;;5015863;28;20219;-76
2021/11/29 10:37:52;;;;;;;2.25;2.15;;;10.20;99.90;;;;;;5020781;28;20233;-76
2021/11/29 10:40:20;;;;;;;2.53;2.33;;;10.20;99.90;;;;;;5020368;28;20219;-77
2021/11/29 10:42:48;;;;;;;2.80;2.60;;;10.60;99.90;;;;;;5024644;28;20294;-77
2021/11/29 10:45:23;;;;;;;2.25;2.13;;;11.00;99.90;;;;;;5020176;28;20231;-77
2021/11/29 10:47:52;;;;;;;2.72;2.50;;;10.80;99.90;;;;;;5020059;28;20215;-77
2021/11/29 10:50:24;;;;;;;2.45;2.25;;;10.80;99.90;;;;;;5019905;28;20242;-78
2021/11/29 10:53:08;;;;;;;2.63;2.42;;;10.60;99.90;;;;;;5018312;28;20223;-77
2021/11/29 10:56:00;;;;;;;2.40;2.30;;;10.70;99.90;;;;;;5018495;28;20251;-78
2021/11/29 10:58:28;;;;;;;5.45;3.20;;;10.50;99.90;;;;;;5020597;28;20508;-77
2021/11/29 11:00:58;;;;;;;2.80;2.60;;;10.70;99.90;;;;;;5018337;28;20265;-78
2021/11/29 11:03:27;;;;;;;3.00;2.70;;;10.50;99.90;;;;;;4993630;28;20231;-77
2021/11/29 11:06:02;;;;;;;2.28;2.17;;;10.30;99.90;;;;;;5020234;28;20216;-76
2021/11/29 11:08:35;;;;;;;2.40;2.30;;;10.00;99.90;;;;;;5014161;28;20269;-76
2021/11/29 11:11:03;;;;;;;2.30;2.20;;;10.10;99.90;;;;;;5020619;28;20585;-78
2021/11/29 11:13:31;;;;;;;2.50;2.38;;;10.00;99.90;;;;;;5019651;28;20223;-75
2021/11/29 11:15:58;;;;;;;2.17;2.08;;;10.20;99.90;;;;;;5019319;28;20219;-72
2021/11/29 11:18:39;;;;;;;3.13;2.38;;;10.20;99.90;;;;;;5014218;28;20220;-75
2021/11/29 11:21:16;;;;;;;1.98;1.83;;;10.00;99.90;;;;;;5014568;28;20231;-74
2021/11/29 11:23:45;;;;;;;2.00;1.90;;;10.20;99.90;;;;;;5015118;28;20387;-74
2021/11/29 11:26:33;;;;;;;2.95;2.10;;;10.30;99.90;;;;;;5015580;28;20247;-75
2021/11/29 11:29:00;;;;;;;2.30;2.20;;;10.50;99.90;;;;;;5010881;28;20219;-74
2021/11/29 11:31:28;;;;;;;2.53;2.33;;;10.50;99.90;;;;;;5015863;28;20216;-78
2021/11/29 11:33:56;;;;;;;3.28;2.15;;;10.50;99.90;;;;;;5020358;28;20215;-77
2021/11/29 11:36:25;;;;;;;2.17;2.08;;;10.70;99.90;;;;;;5017202;28;20231;-76
2021/11/29 11:38:54;;;;;;;2.50;2.30;;;10.50;99.90;;;;;;5017783;28;20241;-76
2021/11/29 11:41:21;;;;;;;3.13;2.75;;;10.80;99.90;;;;;;5014010;28;20219;-77
2021/11/29 11:43:49;;;;;;;4.22;3.15;;;11.10;99.90;;;;;;4995266;28;20781;-77
2021/11/29 11:46:19;;;;;;;2.28;2.13;;;11.10;99.90;;;;;;5016127;28;20733;-82
2021/11/29 11:48:47;;;;;;;2.20;2.10;;;11.10;99.90;;;;;;5015832;28;20227;-82
2021/11/29 11:51:14;;;;;;;2.03;1.92;;;11.00;99.90;;;;;;5014074;28;20558;-78
2021/11/29 11:53:41;;;;;;;2.08;1.80;;;10.70;99.90;;;;;;5019544;28;20267;-75
2021/11/29 11:56:10;;;;;;;2.20;2.10;;;10.60;99.90;;;;;;5013197;28;20266;-76
2021/11/29 11:58:47;;;;;;;2.63;2.03;;;10.50;99.90;;;;;;5014803;28;20843;-78
2021/11/29 12:01:18;;;;;;;3.30;2.50;;;10.80;99.90;;;;;;5011615;28;20234;-82
2021/11/29 12:03:49;;;;;;;2.85;2.55;;;10.80;99.90;;;;;;5011109;28;20219;-77
2021/11/29 12:06:17;;;;;;;2.10;2.00;;;10.90;99.90;;;;;;5016398;28;20231;-82
2021/11/29 12:08:47;;;;;;;1.75;1.65;;;10.90;99.90;;;;;;5014163;28;20220;-76
2021/11/29 12:11:38;;;;;;;2.17;2.08;;;11.10;99.90;;;;;;5016462;28;20235;-77
2021/11/29 12:14:10;;;;;;;2.10;2.00;;;11.40;99.90;;;;;;5017322;28;20223;-79
2021/11/29 12:16:40;;;;;;;2.00;1.90;;;11.60;99.90;;;;;;5018179;28;20220;-76
2021/11/29 12:19:13;;;;;;;2.28;1.85;;;11.40;99.90;;;;;;5019191;28;20727;-80
2021/11/29 12:21:42;;;;;;;1.80;1.70;;;11.10;99.90;;;;;;4985496;28;20219;-82
2021/11/29 12:24:12;;;;;;;1.90;1.80;;;10.90;99.90;;;;;;5015783;28;20231;-76
2021/11/29 12:27:00;;;;;;;2.05;1.95;;;10.90;99.90;;;;;;5016607;28;20697;-78
2021/11/29 12:29:51;;;;;;;1.85;1.75;;;11.00;99.90;;;;;;5002026;28;20222;-76
2021/11/29 12:32:20;;;;;;;2.65;2.45;;;11.20;99.90;;;;;;5014276;28;20227;-83
2021/11/29 12:35:03;;;;;;;1.95;1.85;;;11.20;99.90;;;;;;5017282;28;20230;-80
2021/11/29 12:37:32;;;;;;;2.03;1.92;;;11.40;99.90;;;;;;4969513;28;20298;-82
2021/11/29 12:40:02;;;;;;;3.05;2.10;;;11.30;99.90;;;;;;5011228;28;20597;-80
2021/11/29 12:42:53;;;;;;;3.40;1.80;;;10.90;99.90;;;;;;5018320;28;20234;-80
2021/11/29 12:45:23;;;;;;;1.92;1.80;;;10.50;99.90;;;;;;5012505;28;20552;-79
2021/11/29 12:47:52;;;;;;;2.00;1.90;;;10.40;99.90;;;;;;5011608;28;20718;-75
2021/11/29 12:51:04;;;;;;;2.03;1.92;;;10.50;99.90;;;;;;5014647;28;20258;-78
2021/11/29 12:53:37;;;;;;;1.92;1.83;;;10.70;99.90;;;;;;5008008;28;20331;-77
2021/11/29 12:56:23;;;;;;;2.10;2.00;;;10.80;99.90;;;;;;5012617;28;20231;-79
2021/11/29 12:59:04;;;;;;;2.45;2.25;;;10.80;99.90;;;;;;5016760;28;20219;-79
2021/11/29 13:01:37;;;;;;;2.40;2.22;;;10.70;99.90;;;;;;5012454;28;20513;-76